createdAt,value
2022-09-20T00:02:06.679Z,2.53
2022-09-20T00:07:08.509Z,2.53
2022-09-20T00:12:10.176Z,2.55
2022-09-20T00:17:11.792Z,2.40
2022-09-20T00:22:13.416Z,2.33
2022-09-20T00:27:15.027Z,2.50
2022-09-20T00:32:16.725Z,2.45
2022-09-20T00:37:18.363Z,2.75
2022-09-20T00:42:19.969Z,3.22
2022-09-20T00:47:39.998Z,2.90
2022-09-20T00:52:45.468Z,3.65
2022-09-20T00:57:48.181Z,3.63
2022-09-20T01:02:56.020Z,3.65
2022-09-20T01:07:57.999Z,3.67
2022-09-20T01:12:59.623Z,3.67
2022-09-20T01:18:02.871Z,3.45
2022-09-20T01:23:40.129Z,3.20
2022-09-20T01:28:45.368Z,4.93
2022-09-20T01:34:00.697Z,5.15
2022-09-20T01:39:44.194Z,5.20
2022-09-20T01:45:10.795Z,5.10
2022-09-20T01:50:39.735Z,4.60
2022-09-20T01:55:41.307Z,5.30
2022-09-20T02:01:04.187Z,4.40
2022-09-20T02:06:23.639Z,5.18
2022-09-20T02:11:54.386Z,5.20
2022-09-20T02:17:00.643Z,4.28
2022-09-20T02:22:20.139Z,5.40
2022-09-20T02:27:41.624Z,6.13
2022-09-20T02:33:01.208Z,4.82
2022-09-20T02:38:21.248Z,5.55
2022-09-20T02:43:59.996Z,5.22
2022-09-20T02:49:13.031Z,6.20
2022-09-20T02:54:24.686Z,6.35
2022-09-20T02:59:45.565Z,5.65
2022-09-20T03:05:05.344Z,6.88
2022-09-20T03:10:25.216Z,7.30
2022-09-20T03:15:37.303Z,7.90
2022-09-20T03:21:30.334Z,6.60
2022-09-20T03:26:55.160Z,7.28
2022-09-20T03:32:19.951Z,8.05
2022-09-20T03:37:21.499Z,7.60
2022-09-20T03:42:30.424Z,8.70
2022-09-20T03:47:41.337Z,8.05
2022-09-20T03:58:06.866Z,7.75
2022-09-20T04:03:42.923Z,6.47
2022-09-20T04:09:25.032Z,5.07
2022-09-20T04:20:14.034Z,6.22
2022-09-20T04:25:23.785Z,7.13
2022-09-20T04:30:30.338Z,5.13
2022-09-20T04:36:12.199Z,6.95
2022-09-20T04:41:39.409Z,6.40
2022-09-20T04:46:43.626Z,7.22
2022-09-20T04:52:19.652Z,7.50
2022-09-20T04:57:49.054Z,6.63
2022-09-20T05:03:05.993Z,7.35
2022-09-20T05:08:26.439Z,10.75
2022-09-20T05:13:58.958Z,10.63
2022-09-20T05:19:13.611Z,11.50
2022-09-20T05:24:24.511Z,10.93
2022-09-20T05:35:04.852Z,9.80
2022-09-20T05:40:31.108Z,11.40
2022-09-20T05:45:57.510Z,12.30
2022-09-20T05:51:15.827Z,10.20
2022-09-20T05:56:29.461Z,12.45
2022-09-20T06:01:42.076Z,10.30
2022-09-20T06:07:02.100Z,12.00
2022-09-20T06:12:35.458Z,11.73
2022-09-20T06:17:59.756Z,9.50
2022-09-20T06:23:05.526Z,13.15
2022-09-20T06:28:15.906Z,12.05
2022-09-20T06:33:20.671Z,12.05
2022-09-20T06:38:43.719Z,10.43
2022-09-20T06:43:45.668Z,10.70
2022-09-20T06:48:47.371Z,11.15
2022-09-20T06:53:49.647Z,10.70
2022-09-20T06:58:52.795Z,10.02
2022-09-20T07:03:54.408Z,9.32
2022-09-20T07:08:56.091Z,9.73
2022-09-20T07:14:00.493Z,9.38
2022-09-20T07:19:03.222Z,9.15
2022-09-20T07:24:05.041Z,8.75
2022-09-20T07:29:07.896Z,8.52
2022-09-20T07:34:11.141Z,7.57
2022-09-20T07:39:12.929Z,7.78
2022-09-20T07:44:28.033Z,6.50
2022-09-20T07:49:30.404Z,6.82
2022-09-20T07:54:32.069Z,7.68
2022-09-20T07:59:33.752Z,6.70
2022-09-20T08:04:35.413Z,5.90
2022-09-20T08:09:37.059Z,6.63
2022-09-20T08:14:38.701Z,5.75
2022-09-20T08:19:40.497Z,7.85
2022-09-20T08:24:42.569Z,5.90
2022-09-20T08:29:44.194Z,6.10
2022-09-20T08:34:49.258Z,5.85
2022-09-20T08:39:58.948Z,5.50
2022-09-20T08:45:03.644Z,5.83
2022-09-20T08:50:10.127Z,5.32
2022-09-20T08:55:23.105Z,5.22
2022-09-20T09:00:33.804Z,5.78
2022-09-20T09:05:43.141Z,5.47
2022-09-20T09:10:48.021Z,5.25
2022-09-20T09:15:59.018Z,4.43
2022-09-20T09:21:04.300Z,4.25
2022-09-20T09:26:06.066Z,4.15
2022-09-20T09:31:23.184Z,4.22
2022-09-20T09:36:26.207Z,4.07
2022-09-20T09:41:35.410Z,4.63
2022-09-20T09:46:40.250Z,5.00
2022-09-20T09:52:03.183Z,5.20
2022-09-20T09:57:20.831Z,5.07
2022-09-20T10:02:23.553Z,5.25
2022-09-20T10:07:46.977Z,5.15
2022-09-20T10:13:10.937Z,4.82
2022-09-20T10:18:44.109Z,4.65
2022-09-20T10:24:23.438Z,5.68
2022-09-20T10:29:26.239Z,5.32
2022-09-20T10:34:52.340Z,8.43
2022-09-20T10:40:20.514Z,4.85
2022-09-20T10:46:08.424Z,4.35
2022-09-20T10:51:06.585Z,4.20
2022-09-20T10:56:56.323Z,3.90
2022-09-20T11:01:58.141Z,3.60
2022-09-20T11:07:21.936Z,3.30
2022-09-20T11:12:50.116Z,3.03
2022-09-20T11:18:09.738Z,2.90
2022-09-20T11:23:16.691Z,3.05
2022-09-20T11:28:36.216Z,2.92
2022-09-20T11:33:52.481Z,2.55
2022-09-20T11:39:48.481Z,3.00
2022-09-20T11:44:51.147Z,2.35
2022-09-20T11:49:52.715Z,4.32
2022-09-20T11:55:08.463Z,2.60
2022-09-20T12:00:10.514Z,5.95
2022-09-20T12:05:38.169Z,3.00
2022-09-20T12:10:40.631Z,1.90
2022-09-20T12:15:42.700Z,2.13
2022-09-20T12:20:45.104Z,2.10
2022-09-20T12:26:18.901Z,2.80
2022-09-20T12:31:29.154Z,1.88
2022-09-20T12:41:46.597Z,1.63
2022-09-20T12:47:12.586Z,1.60
2022-09-20T12:52:50.988Z,1.42
2022-09-20T12:58:02.299Z,1.77
2022-09-20T13:03:21.733Z,1.70
2022-09-20T13:08:30.142Z,1.77
2022-09-20T13:13:35.905Z,1.90
2022-09-20T13:18:37.934Z,1.75
2022-09-20T13:23:49.444Z,1.80
2022-09-20T13:28:56.110Z,1.92
2022-09-20T13:34:21.442Z,1.70
2022-09-20T13:39:27.845Z,1.70
2022-09-20T13:44:34.468Z,1.83
2022-09-20T13:49:43.155Z,1.75
2022-09-20T13:54:44.789Z,2.20
2022-09-20T13:59:47.144Z,1.90
2022-09-20T14:04:50.549Z,1.70
2022-09-20T14:09:53.074Z,1.60
2022-09-20T14:14:55.343Z,1.63
2022-09-20T14:19:58.375Z,1.85
2022-09-20T14:25:22.087Z,1.60
2022-09-20T14:30:32.735Z,1.60
2022-09-20T14:35:34.551Z,1.75
2022-09-20T14:40:47.659Z,1.67
2022-09-20T14:45:58.772Z,1.60
2022-09-20T14:51:22.672Z,1.83
2022-09-20T14:56:34.712Z,1.80
2022-09-20T15:01:41.140Z,1.77
2022-09-20T15:06:43.065Z,1.63
2022-09-20T15:11:45.001Z,1.70
2022-09-20T15:16:46.781Z,1.65
2022-09-20T15:21:48.590Z,1.60
2022-09-20T15:26:54.353Z,1.95
2022-09-20T15:32:00.224Z,1.88
2022-09-20T15:37:02.033Z,1.85
2022-09-20T15:42:13.945Z,1.90
2022-09-20T15:47:22.019Z,3.35
2022-09-20T15:52:29.107Z,4.40
2022-09-20T15:57:35.160Z,3.20
2022-09-20T16:02:37.584Z,11.02
2022-09-20T16:07:40.346Z,2.80
2022-09-20T16:12:42.117Z,3.00
2022-09-20T16:18:02.354Z,2.50
2022-09-20T16:23:04.448Z,2.25
2022-09-20T16:28:06.129Z,2.15
2022-09-20T16:33:11.882Z,2.05
2022-09-20T16:38:14.162Z,1.80
2022-09-20T16:43:25.877Z,2.00
2022-09-20T16:48:31.349Z,1.90
2022-09-20T16:53:33.033Z,2.15
2022-09-20T16:58:36.529Z,2.28
2022-09-20T17:03:40.860Z,2.00
2022-09-20T17:08:44.928Z,1.95
2022-09-20T17:13:48.035Z,2.25
2022-09-20T17:19:40.216Z,2.30
2022-09-20T17:24:41.882Z,2.50
2022-09-20T17:29:45.551Z,2.28
2022-09-20T17:34:47.228Z,2.30
2022-09-20T17:39:50.455Z,2.10
2022-09-20T17:44:52.346Z,2.13
2022-09-20T17:49:54.991Z,2.22
2022-09-20T17:54:57.064Z,2.00
2022-09-20T17:59:59.256Z,2.25
2022-09-20T18:05:02.011Z,3.25
2022-09-20T18:10:04.989Z,6.45
2022-09-20T18:15:07.290Z,4.00
2022-09-20T18:20:09.847Z,3.38
2022-09-20T18:25:11.468Z,3.13
2022-09-20T18:30:13.170Z,3.90
2022-09-20T18:35:14.832Z,3.03
2022-09-20T18:40:16.585Z,3.38
2022-09-20T18:45:19.425Z,3.10
2022-09-20T18:50:21.528Z,2.95
2022-09-20T18:55:24.928Z,3.42
2022-09-20T19:00:27.008Z,4.35
2022-09-20T19:05:28.714Z,5.32
2022-09-20T19:10:54.454Z,4.75
2022-09-20T19:16:18.723Z,3.80
2022-09-20T19:21:20.761Z,3.97
2022-09-20T19:26:25.934Z,4.35
2022-09-20T19:31:33.409Z,4.15
2022-09-20T19:36:49.272Z,4.25
2022-09-20T19:41:58.301Z,3.20
2022-09-20T19:47:06.255Z,3.90
2022-09-20T19:52:12.136Z,3.58
2022-09-20T19:57:24.068Z,3.50
2022-09-20T20:02:25.855Z,14.38
2022-09-20T20:07:45.654Z,11.57
2022-09-20T20:13:00.687Z,10.25
2022-09-20T20:18:21.653Z,5.82
2022-09-20T20:23:34.651Z,4.63
2022-09-20T20:28:37.772Z,4.18
2022-09-20T20:33:39.774Z,4.47
2022-09-20T20:45:06.027Z,5.20
2022-09-20T20:50:08.182Z,4.80
2022-09-20T20:55:10.790Z,4.68
2022-09-20T21:00:13.032Z,4.93
2022-09-20T21:05:15.509Z,4.80
2022-09-20T21:10:17.115Z,4.85
2022-09-20T21:15:18.826Z,6.55
2022-09-20T21:20:21.669Z,5.07
2022-09-20T21:25:23.294Z,6.10
2022-09-20T21:30:24.949Z,4.38
2022-09-20T21:35:26.625Z,5.07
2022-09-20T21:40:28.359Z,4.53
2022-09-20T21:45:30.101Z,5.60
2022-09-20T21:50:31.716Z,6.00
2022-09-20T21:55:33.530Z,6.10
2022-09-20T22:00:35.885Z,6.90
2022-09-20T22:05:37.573Z,5.43
2022-09-20T22:10:39.174Z,7.00
2022-09-20T22:15:40.807Z,8.65
2022-09-20T22:20:42.433Z,7.65
2022-09-20T22:25:44.081Z,9.15
2022-09-20T22:30:45.719Z,6.97
2022-09-20T22:35:47.350Z,6.55
2022-09-20T22:40:53.957Z,8.23
2022-09-20T22:46:05.139Z,11.02
2022-09-20T22:51:09.495Z,12.15
2022-09-20T22:56:15.273Z,8.15
2022-09-20T23:01:25.992Z,8.93
2022-09-20T23:06:30.970Z,6.40
2022-09-20T23:11:32.792Z,6.40
2022-09-20T23:16:36.702Z,12.43
2022-09-20T23:21:39.502Z,19.63
2022-09-20T23:26:42.392Z,7.35
2022-09-20T23:31:47.229Z,6.80
2022-09-20T23:36:49.036Z,6.07
2022-09-20T23:41:51.439Z,6.55
2022-09-20T23:46:53.219Z,8.43
2022-09-20T23:51:55.048Z,8.90
2022-09-20T23:56:56.648Z,10.75
